Tawau Airport Tawau MY
ICAO: WBKW
IATA:
Category: Medium
Scheduled Services:

Elevation: 57 ft
TransAlt. 11000 ft.

Airport Communications:
APP:123.55
GND:121.9
TWR:122.5

WBKW Zoom In..

If you have problems with the map follow the link
https://www.worldairports.se/pages/airport.php?
ICAO=WBKW

Runways:

(A) RW 06 length 8809 ft width 154 ft
---- / hdg 58

(B) RW 24 length 8809 ft width 154 ft
ILS 111.30 / hdg 238

Location; WBKW
Day. 22 / Time. 06.00 Zulu
* QNH: 1009
* Temperature: 32° c. 89.6°f.
* Wind from: 140° Speed 08 kn.
Dewpoint: 24° c.
Visibility: 10 km or more.
Clouds: Few 1700 ft.
Clouds: Broken 3000 ft.

WBKW 220600Z 14008KT 090V170 9999 FEW017 BKN300 32/24 Q1009


Wind From 140°
Speed 08 kn.

 
 
jpsmedia worldairports.se 2019   terms of use